»·PEaware :: N2MZ KSMO-KLGB

N2MZ :: KSMO-KLGB

FLIGHT INFORMATION

Flight Status: Arrived
Operator: Privately registered:
United States
More flights under this callsign
Pilot: Mike Z. (25595)
Aircraft: CESSNA 172 SKYHAWK
(C172)
More flights by this aircraft type
Origin: KSMO Santa Monica Mun
United States
Destination: KLGB Long Beach
United States
More flights between these airports :: More routes between these airports
Route: SMO SMO125 V64 SLI
File this flight plan on PilotEdge
Remarks: TEC route SMOP4
Altitude:
(Current/Filed)
4,000ft
Speed:
(Current/Filed)
115kts
Departed: 13-Sep-19 03:27 PM
Arrived: 13-Sep-19 03:54 PM
Distance/Time
Traveled:
19nm/0:26
Distance/Time
To Go:
Arrived

Flight Plot

Page will automatically refresh every two minutes.


Map Options




Map Legend


Flown Route
Filed Route
Departure Airport
Arrival Airport
Navaid (VOR, NDB)
Fix

Horizontal Profiles

Position Reports

Time Latitude Longitude Heading Altitude Ground
Speed
13-Sep-19 14:52 33.676205 -117.871104 212 60ft 0kts
13-Sep-19 14:53 33.676205 -117.871104 212 60ft 0kts
13-Sep-19 14:54 33.676205 -117.871104 212 60ft 0kts
13-Sep-19 14:55 34.017595 -118.445208 330 155ft 0kts
13-Sep-19 14:56 34.017595 -118.445208 330 155ft 0kts
13-Sep-19 14:57 34.017595 -118.445208 330 155ft 0kts
13-Sep-19 14:58 34.017595 -118.445208 330 155ft 0kts
13-Sep-19 14:59 34.017595 -118.445209 330 155ft 0kts
13-Sep-19 15:00 34.017595 -118.445209 330 155ft 0kts
13-Sep-19 15:01 34.017595 -118.445209 330 155ft 0kts
13-Sep-19 15:02 34.017595 -118.445209 330 155ft 0kts
13-Sep-19 15:03 34.017595 -118.445209 330 155ft 0kts
13-Sep-19 15:04 34.017595 -118.445209 330 155ft 0kts
13-Sep-19 15:05 34.017595 -118.445209 330 155ft 0kts
13-Sep-19 15:06 34.017595 -118.445209 330 155ft 0kts
13-Sep-19 15:07 34.017595 -118.445209 330 155ft 0kts
13-Sep-19 15:08 34.017595 -118.445209 330 155ft 0kts
13-Sep-19 15:09 34.017595 -118.445209 330 155ft 0kts
13-Sep-19 15:10 34.017595 -118.445209 330 155ft 0kts
13-Sep-19 15:11 34.017595 -118.445209 330 155ft 0kts
13-Sep-19 15:12 34.017595 -118.445209 330 155ft 0kts
13-Sep-19 15:13 34.017595 -118.445209 330 155ft 0kts
13-Sep-19 15:14 34.017595 -118.445209 330 155ft 0kts
13-Sep-19 15:15 34.017595 -118.445209 330 155ft 0kts
13-Sep-19 15:16 34.017595 -118.445209 330 155ft 0kts
13-Sep-19 15:17 34.017595 -118.445209 330 155ft 0kts
13-Sep-19 15:18 34.017595 -118.445209 330 155ft 0kts
13-Sep-19 15:19 34.017595 -118.445209 330 155ft 0kts
13-Sep-19 15:20 34.017830 -118.445242 245 156ft 1kts
13-Sep-19 15:21 34.019146 -118.445508 350 158ft 6kts
13-Sep-19 15:22 34.018471 -118.446801 243 156ft 0kts
13-Sep-19 15:23 34.018471 -118.446801 242 156ft 0kts
13-Sep-19 15:24 34.018466 -118.446809 232 156ft 0kts
13-Sep-19 15:25 34.018909 -118.446905 303 156ft 0kts
13-Sep-19 15:26 34.016888 -118.450086 224 146ft 64kts
13-Sep-19 15:27 34.002767 -118.469390 223 809ft 78kts
13-Sep-19 15:28 33.990667 -118.490743 264 1530ft 83kts
13-Sep-19 15:29 33.990204 -118.516368 264 2274ft 77kts
13-Sep-19 15:30 33.992234 -118.543108 308 2886ft 89kts
13-Sep-19 15:31 34.008637 -118.531247 87 3494ft 89kts
13-Sep-19 15:32 34.011486 -118.501411 87 4037ft 97kts
13-Sep-19 15:33 34.014492 -118.463650 88 4039ft 111kts
13-Sep-19 15:34 33.999481 -118.436401 143 4040ft 102kts
13-Sep-19 15:35 33.974817 -118.420587 146 4040ft 101kts
13-Sep-19 15:36 33.951652 -118.400016 144 4039ft 106kts
13-Sep-19 15:37 33.927768 -118.377330 142 4039ft 111kts
13-Sep-19 15:39 33.903490 -118.353442 140 4037ft 113kts
13-Sep-19 15:40 33.879012 -118.328939 140 4034ft 114kts
13-Sep-19 15:41 33.854572 -118.304015 139 4030ft 115kts
13-Sep-19 15:42 33.829735 -118.278315 139 4029ft 124kts
13-Sep-19 15:43 33.802842 -118.250803 140 4023ft 127kts
13-Sep-19 15:44 33.775918 -118.223420 141 4034ft 126kts
13-Sep-19 15:45 33.764044 -118.187095 82 3841ft 130kts
13-Sep-19 15:46 33.774604 -118.143797 72 3157ft 136kts
13-Sep-19 15:47 33.782702 -118.099905 89 2456ft 133kts
13-Sep-19 15:48 33.785907 -118.056398 87 1992ft 121kts
13-Sep-19 15:49 33.808444 -118.050079 275 1641ft 74kts
13-Sep-19 15:50 33.813858 -118.080189 270 1344ft 94kts
13-Sep-19 15:51 33.814217 -118.105046 271 834ft 68kts
13-Sep-19 15:52 33.813985 -118.128042 266 441ft 63kts
13-Sep-19 15:53 33.813847 -118.151540 272 40ft 56kts
13-Sep-19 15:54 33.813165 -118.155771 182 45ft 0kts
13-Sep-19 15:55 33.813063 -118.159649 272 50ft 18kts
13-Sep-19 15:56 33.812704 -118.160359 182 50ft 0kts
13-Sep-19 15:57 33.812704 -118.160359 182 50ft 0kts

Navigation Log

Ident Type
Flight plan parsing failed, navigation log unavailable